Latest Coastal Weather Observations for Cape Otway

IDV60701

Issued at 2:31 am EST Monday 25 July 2016 (issued every 10 minutes, with the page automatically refreshed every 10 minutes)

About coastal observations | Map of coastal stations | Coastal observations for VIC | Marine services | Other Formats
Station Details ID: 090015 Name: CAPE OTWAY LIGHTHOUSE Lat: -38.86 Lon: 143.51 Height: 82.0 m
Data from the previous 72 hours. | See also: Recent months at Cape Otway
Date/Time
EST
Temp
°C
Wind Pressure Rain since
9am
mm
Weather Cloud Vis
km
Sea
Height
m
Swell
Dir  Spd
kts
Gust
kts
hPa Trend Height
m
Period
s
Dir
25/02:30am 8.3 NW 16 24 1001.9 - 0.4 - - - - - - -
25/02:07am 8.2 NW 15 25 1001.8 - 0.4 - - - - - - -
25/02:00am 8.2 NW 16 24 1001.8 - 0.4 - - - - - - -
25/01:34am 8.1 NW 17 29 1001.6 - 0.2 - - - - - - -
25/01:30am 8.1 NW 16 24 1001.6 - 0.2 - - - - - - -
25/01:00am 7.7 NNW 15 27 1001.5 - 0.2 - - - - - - -
25/12:33am 7.4 NNW 15 25 1001.6 - 0.2 - - - - - - -
25/12:30am 7.4 NNW 15 20 1001.6 - 0.2 - - - - - - -
25/12:00am 7.4 NNW 17 25 1001.7 - 0.2 - - - - - - -
 
Date/Time
EST
Temp
°C
Wind Pressure Rain since
9am
mm
Weather Cloud Vis
km
Sea
Height
m
Swell
Dir  Spd
kts
Gust
kts
hPa Trend Height
m
Period
s
Dir
24/11:30pm 7.7 NNW 19 27 1001.4 - 0.2 - - - - - - -
24/11:09pm 8.0 NNW 17 27 1001.3 - 0.2 - - - - - - -
24/11:00pm 8.1 NNW 16 25 1001.2 - 0.2 - - - - - - -
24/10:30pm 8.0 NNW 18 28 1001.0 - 0.2 - - - - - - -
24/10:00pm 8.2 NNW 18 28 1001.0 - 0.2 - - - - - - -
24/09:36pm 8.2 NNW 17 27 1001.2 - 0.2 - - - - - - -
24/09:30pm 8.3 NNW 18 27 1001.2 - 0.2 - - - - - - -
24/09:16pm 8.2 NNW 17 28 1001.2 - 0.2 - - - - - - -
24/09:00pm 8.4 NNW 14 22 1001.3 - 0.2 - - - - - - -
24/08:53pm 8.4 NNW 15 25 1001.2 - 0.2 - - - - - - -
24/08:30pm 8.6 NNW 14 23 1001.2 - 0.2 - - - - - - -
24/08:00pm 8.8 NNW 14 24 1001.3 - 0.2 - - - - - - -
24/07:30pm 8.8 NNW 12 22 1001.5 - 0.2 - - - - - - -
24/07:00pm 9.0 N 13 19 1001.4 - 0.2 - - - - - - -
24/06:30pm 9.0 N 12 19 1001.6 - 0.2 - - - - - - -
24/06:00pm 9.5 N 11 18 1001.6 - 0.2 - - - - - - -
24/05:30pm 9.2 N 11 19 1001.3 - 0.2 - - - - - - -
24/05:00pm 9.2 N 12 19 1001.6 - 0.2 - - - - - - -
24/04:30pm 9.7 N 14 23 1001.7 - 0.2 - - - - - - -
24/04:00pm 9.1 N 11 19 1002.1 - 0.2 - - - - - - -
24/03:30pm 8.6 N 14 21 1003.1 - 0.0 - - - - - - -
24/03:18pm 8.7 NNW 17 27 1002.9 - 0.0 - - - - - - -
24/03:00pm 9.6 NNW 14 23 1003.0 - 0.0 - - - - - - -
24/02:31pm 10.1 NNW 19 29 1003.1 - 0.0 - - - - - - -
24/02:30pm 10.1 NNW 20 29 1003.1 - 0.0 - - - - - - -
24/02:06pm 10.4 NNW 15 25 1003.2 - 0.0 - - - - - - -
24/02:00pm 10.5 NNW 13 20 1003.3 - 0.0 - - - - - - -
24/01:31pm 10.4 NNW 15 25 1003.8 - 0.0 - - - - - - -
24/01:30pm 10.4 NNW 16 25 1003.8 - 0.0 - - - - - - -
24/01:02pm 10.3 NNW 16 26 1004.3 - 0.0 - - - - - - -
24/01:00pm 10.1 NNW 17 26 1004.4 - 0.0 - - - - - - -
24/12:32pm 10.4 NNW 15 25 1005.1 - 0.0 - - - - - - -
24/12:30pm 10.2 NNW 14 25 1005.2 - 0.0 - - - - - - -
24/12:00pm 10.4 NNW 15 25 1005.7 - 0.0 - - - - - - -
24/11:44am 10.4 NNW 15 26 1006.0 - 0.0 - - - - - - -
24/11:30am 10.2 NNW 15 23 1006.3 - 0.0 - - - - - - -
24/11:02am 9.9 N 16 26 1006.6 - 0.0 - - - - - - -
24/11:00am 9.7 N 17 26 1006.6 - 0.0 - - - - - - -
24/10:37am 9.5 NNW 16 26 1006.7 - 0.0 - - - - - - -
24/10:30am 9.4 NNW 17 26 1006.7 - 0.0 - - - - - - -
24/10:13am 9.0 NNW 16 26 1006.9 - 0.0 - - - - - - -
24/10:00am 8.5 NNW 15 23 1007.0 - 0.0 - - - - - - -
24/09:41am 8.1 NNW 15 25 1007.0 - 0.0 - - - - - - -
24/09:30am 7.9 NNW 16 25 1007.1 - 0.0 - - - - - - -
24/09:00am 7.2 NNW 16 24 1007.6 - 3.0 - - - - - - -
24/08:30am 6.6 N 14 22 1007.8 - 3.0 - - - - - - -
24/08:00am 6.1 NNW 15 20 1007.7 - 3.0 - - - - - - -
24/07:30am 5.9 NNW 13 21 1007.8 - 3.0 - - - - - - -
24/07:00am 5.6 NNW 11 16 1008.0 - 3.0 - - - - - - -
24/06:30am 5.8 NNW 12 17 1008.1 - 3.0 - - - - - - -
24/06:00am 5.6 NNW 12 17 1008.4 - 3.0 - - - - - - -
24/05:30am 5.4 N 11 16 1008.5 - 3.0 - - - - - - -
24/05:00am 5.3 NNW 10 14 1008.9 - 3.0 - - - - - - -
24/04:30am 5.1 NNW 8 11 1009.2 - 3.0 - - - - - - -
24/04:00am 5.9 NNW 11 17 1009.6 - 3.0 - - - - - - -
24/03:30am 5.9 NNW 10 19 1009.8 - 2.8 - - - - - - -
24/03:00am 5.8 NNW 10 15 1010.3 - 2.8 - - - - - - -
24/02:30am 5.8 NNW 11 15 1010.4 - 2.6 - - - - - - -
24/02:00am 5.4 N 11 15 1010.1 - 2.6 - - - - - - -
24/01:30am 5.5 NNW 11 15 1010.2 - 2.6 - - - - - - -
24/01:00am 5.8 N 10 15 1010.2 - 2.6 - - - - - - -
24/12:30am 5.6 NNW 10 14 1010.5 - 2.6 - - - - - - -
24/12:00am 6.1 NNW 9 16 1011.1 - 2.6 - - - - - - -
 
Date/Time
EST
Temp
°C
Wind Pressure Rain since
9am
mm
Weather Cloud Vis
km
Sea
Height
m
Swell
Dir  Spd
kts
Gust
kts
hPa Trend Height
m
Period
s
Dir
23/11:30pm 6.0 NNW 9 12 1011.1 - 1.4 - - - - - - -
23/11:00pm 6.3 NNW 7 11 1011.1 - 1.4 - - - - - - -
23/10:30pm 6.9 N 10 14 1010.9 - 0.4 - - - - - - -
23/10:00pm 7.9 NW 9 13 1011.0 - 0.4 - - - - - - -
23/09:30pm 9.1 W 14 20 1011.0 - 0.4 - - - - - - -
23/09:00pm 8.7 WSW 15 27 1010.9 - 0.4 - - - - - - -
23/08:58pm 9.2 W 15 27 1010.8 - 0.4 - - - - - - -
23/08:30pm 9.6 W 15 21 1010.4 - 0.2 - - - - - - -
23/08:00pm 9.6 WSW 16 23 1010.3 - 0.2 - - - - - - -
23/07:30pm 9.7 WSW 17 24 1010.0 - 0.2 - - - - - - -
23/07:04pm 9.3 W 18 28 1009.8 - 0.2 - - - - - - -
23/07:00pm 9.5 WSW 19 28 1009.7 - 0.2 - - - - - - -
23/06:30pm 9.3 WSW 20 28 1009.3 - 0.2 - - - - - - -
23/06:00pm 9.7 WSW 19 29 1008.9 - 0.2 - - - - - - -
23/05:30pm 9.7 WSW 23 33 1008.3 - 0.2 - - - - - - -
23/05:09pm 9.2 W 21 31 1008.2 - 0.2 - - - - - - -
23/05:00pm 9.0 W 21 29 1008.0 - 0.2 - - - - - - -
23/04:30pm 9.7 WSW 19 29 1007.7 - 0.2 - - - - - - -
23/04:00pm 9.8 WSW 26 36 1007.3 - 0.2 - - - - - - -
23/03:33pm 9.7 WSW 23 33 1006.9 - 0.2 - - - - - - -
23/03:30pm 9.7 WSW 24 33 1006.8 - 0.2 - - - - - - -
23/03:04pm 9.5 WSW 28 38 1006.4 - 0.2 - - - - - - -
23/03:00pm 9.5 WSW 28 37 1006.4 - 0.2 - - - - - - -
23/02:30pm 9.8 WSW 25 36 1005.7 - 0.2 - - - - - - -
23/02:00pm 9.2 W 24 35 1005.6 - 0.2 - - - - - - -
23/01:30pm 8.9 W 24 40 1005.2 - 0.2 - - - - - - -
23/01:00pm 9.2 W 26 39 1005.1 - 0.0 - - - - - - -
23/12:30pm 9.3 W 28 38 1004.9 - 0.0 - - - - - - -
23/12:00pm 9.5 W 29 41 1004.8 - 0.0 - - - - - - -
23/11:30am 8.8 W 29 39 1004.6 - 0.0 - - - - - - -
23/11:00am 7.8 WSW 30 45 1004.6 - 0.0 - - - - - - -
23/10:30am 8.0 W 27 46 1003.8 - 0.0 - - - - - - -
23/10:00am 7.5 WSW 29 46 1003.7 - 0.0 - - - - - - -
23/09:30am 9.0 WSW 28 39 1002.8 - 0.0 - - - - - - -
23/09:00am 8.8 WSW 28 41 1002.5 - 26.8 - - - - - - -
23/08:30am 9.0 WSW 32 45 1001.8 - 26.8 - - - - - - -
23/08:00am 7.8 WSW 33 50 1001.6 - 26.8 - - - - - - -
23/07:30am 8.7 WSW 29 45 1000.6 - 26.8 - - - - - - -
23/07:00am 8.8 WSW 33 50 1000.2 - 26.8 - - - - - - -
23/06:30am 8.8 WSW 35 49 999.5 - 26.8 - - - - - - -
23/06:00am 8.8 WSW 34 49 998.3 - 26.8 - - - - - - -
23/05:30am 9.1 WSW 37 49 997.3 - 26.8 - - - - - - -
23/05:00am 8.9 WSW 35 51 996.4 - 26.8 - - - - - - -
23/04:30am 8.6 WSW 31 50 996.1 - 26.6 - - - - - - -
23/04:00am 8.1 WSW 31 41 995.5 - 26.6 - - - - - - -
23/03:30am 9.0 WSW 26 47 994.8 - 25.8 - - - - - - -
23/03:00am 9.0 WSW 26 36 994.3 - 25.6 - - - - - - -
23/02:32am 9.2 WSW 24 34 994.0 - 25.6 - - - - - - -
23/02:30am 9.1 WSW 25 34 993.9 - 25.6 - - - - - - -
23/02:08am 8.9 W 18 30 993.4 - 25.6 - - - - - - -
23/02:00am 8.8 WSW 18 26 993.3 - 25.6 - - - - - - -
23/01:36am 7.9 WSW 19 29 993.1 - 25.6 - - - - - - -
23/01:30am 7.6 WSW 20 29 993.0 - 25.6 - - - - - - -
23/01:12am 7.8 WSW 19 34 992.6 - 24.8 - - - - - - -
23/01:00am 7.6 SW 16 23 992.5 - 24.2 - - - - - - -
23/12:30am 6.7 SW 20 30 992.0 - 21.4 - - - - - - -
23/12:27am 7.6 SW 17 28 991.8 - 21.0 - - - - - - -
23/12:00am 7.4 WSW 11 27 991.3 - 17.6 - - - - - - -
 
Date/Time
EST
Temp
°C
Wind Pressure Rain since
9am
mm
Weather Cloud Vis
km
Sea
Height
m
Swell
Dir  Spd
kts
Gust
kts
hPa Trend Height
m
Period
s
Dir
22/11:30pm 8.7 WNW 10 15 990.8 - 12.0 - - - - - - -
22/11:00pm 8.2 W 10 14 991.1 - 8.4 - - - - - - -
22/10:30pm 8.3 W 15 22 991.3 - 7.6 - - - - - - -
22/10:00pm 8.8 WNW 9 14 991.6 - 5.6 - - - - - - -
22/09:30pm 8.9 NNW 11 16 992.4 - 4.0 - - - - - - -
22/09:00pm 9.2 NNW 10 16 992.3 - 2.6 - - - - - - -
22/08:30pm 10.3 N 11 18 992.6 - 0.4 - - - - - - -
22/08:00pm 11.6 W 12 16 992.7 - 0.4 - - - - - - -
22/07:30pm 11.6 W 14 19 992.8 - 0.4 - - - - - - -
22/07:00pm 11.5 W 14 19 993.1 - 0.4 - - - - - - -
22/06:30pm 11.7 W 16 23 993.4 - 0.4 - - - - - - -
22/06:00pm 11.8 W 16 23 993.4 - 0.4 - - - - - - -
22/05:30pm 11.7 W 19 25 993.4 - 0.4 - - - - - - -
22/05:00pm 11.8 W 18 27 993.4 - 0.2 - - - - - - -
22/04:39pm 12.2 W 19 29 993.5 - 0.2 - - - - - - -
22/04:30pm 12.2 W 22 30 993.6 - 0.2 - - - - - - -
22/04:00pm 12.4 W 21 29 993.3 - 0.2 - - - - - - -
22/03:53pm 12.5 W 22 32 993.3 - 0.2 - - - - - - -
22/03:30pm 12.5 W 21 29 993.2 - 0.2 - - - - - - -
22/03:19pm 12.5 W 22 32 993.1 - 0.2 - - - - - - -
22/03:00pm 12.7 W 23 31 993.1 - 0.2 - - - - - - -
22/02:30pm 12.8 W 23 31 993.0 - 0.2 - - - - - - -
22/02:00pm 12.9 W 25 37 992.9 - 0.2 - - - - - - -
22/01:30pm 13.0 W 26 36 992.7 - 0.2 - - - - - - -
22/01:00pm 13.0 W 25 35 992.7 - 0.2 - - - - - - -
22/12:30pm 12.6 WNW 24 34 992.8 - 0.2 - - - - - - -
22/12:00pm 12.4 WNW 27 39 993.0 - 0.0 - - - - - - -
22/11:30am 12.5 WNW 26 40 992.8 - 0.0 - - - - - - -
22/11:03am 14.4 NW 23 33 992.7 - 0.0 - - - - - - -
22/11:00am 14.5 NW 22 31 992.7 - 0.0 - - - - - - -
22/10:30am 14.4 NW 21 31 992.8 - 0.0 - - - - - - -
22/10:00am 14.3 NW 17 35 993.2 - 0.0 - - - - - - -
22/09:30am 14.2 NW 19 34 993.5 - 0.0 - - - - - - -
22/09:00am 13.9 NW 17 30 993.8 - 17.8 - - - - - - -
22/08:30am 13.5 NW 16 29 994.1 - 17.8 - - - - - - -
22/08:02am 13.4 NW 16 26 994.3 - 17.8 - - - - - - -
22/08:00am 13.5 NW 17 26 994.3 - 17.8 - - - - - - -
22/07:33am 13.3 NW 15 25 994.6 - 17.8 - - - - - - -
22/07:30am 13.4 NW 16 25 994.7 - 17.8 - - - - - - -
22/07:00am 13.7 NW 17 27 994.9 - 17.8 - - - - - - -
22/06:31am 13.8 NW 15 25 995.4 - 17.8 - - - - - - -
22/06:30am 13.8 NW 15 23 995.4 - 17.8 - - - - - - -
22/06:00am 14.0 WNW 16 26 995.2 - 17.8 - - - - - - -
22/05:37am 14.1 NW 16 26 995.0 - 17.8 - - - - - - -
22/05:30am 14.1 NW 16 25 995.0 - 17.8 - - - - - - -
22/05:00am 14.2 NW 16 24 995.5 - 17.8 - - - - - - -
22/04:30am 14.0 NW 15 23 995.8 - 17.8 - - - - - - -
22/04:00am 14.0 NW 17 29 996.7 - 17.6 - - - - - - -
22/03:30am 14.4 WNW 19 35 997.1 - 17.0 - - - - - - -
22/03:16am 14.6 NW 15 26 997.2 - 16.4 - - - - - - -
22/03:00am 15.0 NW 12 21 998.0 - 13.2 - - - - - - -

Other Formats:

Comma delimited format used in spreadsheet applications
http://www.bom.gov.au/fwo/IDV60701/IDV60701.94842.axf

JavaScript Object Notation format (JSON) in row-major order
http://www.bom.gov.au/fwo/IDV60701/IDV60701.94842.json